Observations for BRIZE NORTON RA, United Kingdom (EGVN)

EGVN 211750Z 21003KT 4500 RADZ FEW003 SCT006 BKN014 07/06 Q1005 YLO1 BECMG BKN010 GRN   
EGVN 211750Z 21003KT 4500 RADZ FEW003 SCT006 BKN014 07/06 Q1005 BECMG BKN010
EGVN 211650Z 13001KT 2500 RADZ FEW002 BKN005 04/04 Q1006 YLO1 BECMG 4000 -RADZ BKN008 GRN   
EGVN 211650Z 13001KT 2500 RADZ FEW002 BKN005 04/04 Q1006 BECMG 4000 -RADZ BKN008
EGVN 211620Z 13001KT 1200 RADZ SCT002 BKN005 03/03 Q1006 AMB BECMG 4000 -RADZ BKN007 GRN
EGVN 211550Z 13003KT 2500 RADZ SCT003 BKN005 03/03 Q1007 YLO2 BECMG 4000 -RADZ BKN008 GRN   
EGVN 211550Z 13003KT 2500 RADZ SCT003 BKN005 03/03 Q1007 BECMG 4000 -RADZ BKN008
EGVN 211450Z 12004KT 3600 -RA FEW003 BKN005 02/02 Q1007 NOSIG   
EGVN 211450Z 12004KT 3600 -RA FEW003 BKN005 02/02 Q1007 YLO1 NOSIG
EGVN 211350Z 13005KT 4500 RA FEW004 BKN006 02/01 Q1009 YLO1 BECMG 5000 -RA BKN007 GRN   
EGVN 211350Z 13005KT 4500 RA FEW004 BKN006 02/01 Q1009 BECMG 5000 -RA BKN007
EGVN 211250Z 15007KT 4000 RA OVC004 01/01 Q1010 YLO2 TEMPO 5000 -RA SCT006 YLO1 
EGVN 211250Z 15007KT 4000 RA OVC004 01/01 Q1010 TEMPO 5000 -RA SCT006
EGVN 211150Z 14009KT 4500 RA FEW003 BKN006 01/01 Q1011 YLO1 BECMG 5000 -RA BKN007 GRN   
EGVN 211150Z 14009KT 4500 RA FEW003 BKN006 01/01 Q1011 BECMG 5000 -RA BKN007
EGVN 211050Z 13008KT 3700 RA SCT004 SCT007 BKN012 01/00 Q1012 YLO2 BECMG 5000 -RA BKN007 GRN
EGVN 211050Z 13008KT 3700 RA SCT004 SCT007 BKN012 01/00 Q1012 BECMG 5000 -RA BKN007
EGVN 211014Z 13008KT 3700 -RA OVC003 00/00 Q1013 RESN YLO2 TEMPO FEW003 BKN006 YLO1
EGVN 210950Z 12006KT 2000 SN SCT003 BKN012 00/00 Q1013 BECMG 4000 -RASN SCT006  
EGVN 210950Z 12006KT 2000 SN SCT003 BKN012 00/00 Q1013 YLO2 BECMG 4000 -RASN SCT006 YLO2
EGVN 210850Z 12005KT 1200 SN OVC002 00/00 Q1014 AMB BECMG 2000 -RADZ FEW002 SCT006 YLO2 
EGVN 210850Z 12005KT 1200 SN OVC002 00/00 Q1014 BECMG 2000 -RADZ FEW002 SCT006
EGVN 210821Z 11005KT 1000 SN SCT003 SCT006 BKN012 00/00 Q1014 AMB NOSIG
EGVN 210750Z 11004KT 0800 SN FEW006 OVC011 01/00 Q1014 AMB TEMPO SCT006 AMB 
EGVN 210750Z 11004KT 0800 SN FEW006 OVC011 01/00 Q1014 TEMPO SCT006
EGVN 210650Z 13003KT 3000 -DZ FEW009 OVC060 01/01 Q1013 YLO1 TEMPO 1500 RASN BKN002 AMB 
EGVN 210650Z 13003KT 3000 -DZ FEW009 OVC060 01/01 Q1013 TEMPO 1500 RASN BKN002
EGVN 210550Z 18001KT 4000 BR FEW008 SCT034 BKN070 01/01 Q1014 BECMG BKN008  
EGVN 210550Z 18001KT 4000 BR FEW008 SCT034 BKN070 01/01 Q1014 GRN BECMG BKN008 GRN
EGVN 210450Z 23002KT 3000 BR BKN005 01/01 Q1014 TEMPO -RA BKN004
EGVN 210450Z 23002KT 3000 BR BKN005 01/01 Q1014 YLO1 TEMPO -RA BKN004 YLO2
EGVN 210350Z 36001KT 4000 BR BKN005 01/00 Q1013 TEMPO 3000 -RA BKN004   
EGVN 210350Z 36001KT 4000 BR BKN005 01/00 Q1013 YLO1 TEMPO 3000 -RA BKN004 YLO2
EGVN 210250Z 02002KT 5000 BR BKN006 01/00 Q1013 TEMPO 3500 BR   
EGVN 210250Z 02002KT 5000 BR BKN006 01/00 Q1013 YLO1 TEMPO 3500 BR YLO1
EGVN 210150Z 29001KT 7000 HZ BKN008 01/00 Q1013 GRN TEMPO BKN006 YLO1   
EGVN 210150Z 29001KT 7000 HZ BKN008 01/00 Q1013 TEMPO BKN006
EGVN 210050Z 30003KT 7000 HZ BKN008 02/01 Q1013 TEMPO BKN006
EGVN 210050Z 30003KT 7000 HZ BKN008 02/01 Q1013 GRN TEMPO BKN006 YLO1
EGVN 202350Z 28002KT 7000 HZ BKN008 02/01 Q1012 TEMPO BKN006
EGVN 202350Z 28002KT 7000 HZ BKN008 02/01 Q1012 GRN TEMPO BKN006 YLO1
EGVN 202250Z 32004KT 8000 BR BKN006 01/01 Q1010 NOSIG   
EGVN 202250Z 32004KT 8000 BR BKN006 01/01 Q1010 YLO1 NOSIG
EGVN 202150Z 34003KT 8000 BR SCT005 01/01 Q1009 YLO1 TEMPO SCT003 YLO2  
EGVN 202150Z 34003KT 8000 BR SCT005 01/01 Q1009 TEMPO SCT003
EGVN 202123Z 33003KT 7000 BR FEW006 01/01 Q1009 WHT TEMPO 4000 SCT003 YLO2
EGVN 202050Z 36008KT 8000 BR BKN006 02/01 Q1008 YLO1 NOSIG  
EGVN 202050Z 36008KT 8000 BR BKN006 02/01 Q1008 NOSIG
EGVN 201950Z 01007KT 8000 BR BKN006 02/01 Q1006 NOSIG   
EGVN 201950Z 01007KT 8000 BR BKN006 02/01 Q1006 YLO1 NOSIG
EGVN 201841Z 03008KT 8000 BR BKN006 BKN008 02/01 Q1004 TEMPO FEW006 BKN008  
EGVN 201841Z 03008KT 8000 BR BKN006 BKN008 02/01 Q1004 YLO1 TEMPO FEW006 BKN008GRN
EGVN 201750Z 02008KT 8000 BR FEW006 BKN007 02/02 Q1002 TEMPO 3000 -RADZ SCT006  
EGVN 201750Z 02008KT 8000 BR FEW006 BKN007 02/02 Q1002 GRN TEMPO 3000 -RADZ SCT006 YLO1
EGVN 201721Z 03007KT 6000 -RA BKN006 BKN018 02/02 Q1002 YLO1 TEMPO 4000 -RADZ YLO1